Time;durP1;ratioP1;P1;durP2;ratioP2;P2;SDS_P1;SDS_P2;PMS_P1;PMS_P2;Temp;Humidity;BMP_temperature;BMP_pressure;BME280_temperature;BME280_humidity;BME280_pressure;Samples;Min_cycle;Max_cycle;Signal;HPM_P1;HPM_P2
2023/01/06 00:01:29;;;;;;;846.77;182.93;;;9.30;99.90;;;;;;5028204;28;20230;-51
2023/01/06 00:03:58;;;;;;;741.90;173.73;;;9.30;99.90;;;;;;5028630;28;20294;-52
2023/01/06 00:06:29;;;;;;;823.80;139.97;;;9.30;99.90;;;;;;5027906;28;20454;-51
2023/01/06 00:08:59;;;;;;;955.40;167.00;;;9.30;99.90;;;;;;5027680;28;20277;-51
2023/01/06 00:11:28;;;;;;;1999.90;514.40;;;9.30;99.90;;;;;;5048408;28;20217;-51
2023/01/06 00:13:56;;;;;;;750.73;131.43;;;9.20;99.90;;;;;;5033013;28;20802;-51
2023/01/06 00:16:24;;;;;;;781.60;132.90;;;9.30;99.90;;;;;;5028882;28;20657;-51
2023/01/06 00:18:56;;;;;;;677.67;119.30;;;9.30;99.90;;;;;;5031757;28;20253;-51
2023/01/06 00:21:24;;;;;;;429.57;113.23;;;9.30;99.90;;;;;;5019051;28;20210;-52
2023/01/06 00:23:53;;;;;;;1911.67;288.03;;;9.30;99.90;;;;;;5031141;28;20210;-51
2023/01/06 00:26:21;;;;;;;336.07;78.17;;;9.30;99.90;;;;;;5031181;28;20218;-51
2023/01/06 00:28:52;;;;;;;1972.97;292.27;;;9.30;99.90;;;;;;5029655;28;20206;-51
2023/01/06 00:31:21;;;;;;;560.10;95.53;;;9.30;99.90;;;;;;5018720;28;20210;-51
2023/01/06 00:33:49;;;;;;;938.13;216.10;;;9.30;99.90;;;;;;5030333;28;20202;-51
2023/01/06 00:36:20;;;;;;;667.47;127.10;;;9.30;99.90;;;;;;5030997;28;20225;-52
2023/01/06 00:38:49;;;;;;;730.40;103.50;;;9.30;99.90;;;;;;5030845;28;20208;-52
2023/01/06 00:44:00;;;;;;;314.37;56.03;;;9.30;99.90;;;;;;5008504;28;20653;-51
2023/01/06 00:46:29;;;;;;;1023.77;145.23;;;9.40;99.90;;;;;;5031131;28;20222;-51
2023/01/06 00:48:58;;;;;;;466.47;113.10;;;9.40;99.90;;;;;;5031137;28;20640;-53
2023/01/06 00:51:39;;;;;;;852.50;177.17;;;9.40;99.90;;;;;;5029890;28;20232;-52
2023/01/06 00:54:08;;;;;;;628.90;141.67;;;9.40;99.90;;;;;;5031053;28;20210;-52
2023/01/06 00:56:37;;;;;;;1042.87;148.77;;;9.40;99.90;;;;;;5030949;28;20258;-52
2023/01/06 00:59:06;;;;;;;42.70;25.20;;;9.40;99.90;;;;;;5030889;28;20211;-53
2023/01/06 01:01:34;;;;;;;680.10;115.17;;;9.40;99.90;;;;;;5030924;28;20214;-52
2023/01/06 01:04:03;;;;;;;374.50;76.53;;;9.40;99.90;;;;;;5030932;28;20206;-52
2023/01/06 01:06:31;;;;;;;747.50;113.47;;;9.40;99.90;;;;;;5030903;28;20230;-51
2023/01/06 01:09:01;;;;;;;486.90;80.93;;;9.40;99.90;;;;;;5033062;28;20272;-50
2023/01/06 01:14:16;;;;;;;619.20;122.27;;;9.40;99.90;;;;;;5050395;28;20229;-51
2023/01/06 01:16:45;;;;;;;1123.30;245.37;;;9.50;99.90;;;;;;5044126;28;20267;-51
2023/01/06 01:19:13;;;;;;;328.93;71.73;;;9.40;99.90;;;;;;5050852;28;20256;-52
2023/01/06 01:21:42;;;;;;;385.10;80.07;;;9.50;99.90;;;;;;5039341;28;20308;-52
2023/01/06 01:24:11;;;;;;;364.60;79.90;;;9.50;99.90;;;;;;5044497;28;20873;-52
2023/01/06 01:26:39;;;;;;;317.73;68.10;;;9.50;99.90;;;;;;5049857;28;20246;-51
2023/01/06 01:29:10;;;;;;;424.87;74.97;;;9.50;99.90;;;;;;5050306;28;20293;-52
2023/01/06 01:31:38;;;;;;;1422.23;338.20;;;9.50;99.90;;;;;;5050278;28;20243;-52
2023/01/06 01:34:06;;;;;;;923.77;144.87;;;9.50;99.90;;;;;;5050544;28;20662;-52
2023/01/06 01:36:34;;;;;;;684.77;130.67;;;9.40;99.90;;;;;;5049300;28;20272;-52
2023/01/06 01:39:02;;;;;;;1495.70;288.63;;;9.40;99.90;;;;;;5050408;28;20285;-52
2023/01/06 01:41:31;;;;;;;1999.90;383.30;;;9.40;99.90;;;;;;5041948;28;20213;-51
2023/01/06 01:44:01;;;;;;;346.37;71.63;;;9.50;99.90;;;;;;5050055;28;20734;-52
2023/01/06 01:46:33;;;;;;;707.73;123.70;;;9.40;99.90;;;;;;5049790;28;20217;-52
2023/01/06 01:49:06;;;;;;;858.30;169.63;;;9.40;99.90;;;;;;5050356;28;20296;-51
2023/01/06 01:51:39;;;;;;;1390.73;270.23;;;9.40;99.90;;;;;;5049695;28;20229;-52
2023/01/06 01:54:12;;;;;;;650.53;104.90;;;9.40;99.90;;;;;;5048767;28;20241;-53
2023/01/06 01:56:48;;;;;;;1623.33;220.10;;;9.40;99.90;;;;;;5049432;28;20226;-52
2023/01/06 01:59:18;;;;;;;1039.73;169.47;;;9.40;99.90;;;;;;5040950;28;20285;-51
2023/01/06 02:01:47;;;;;;;517.57;102.83;;;9.50;99.90;;;;;;5042954;28;20257;-52
2023/01/06 02:04:17;;;;;;;634.77;108.33;;;9.50;99.90;;;;;;5048048;28;20217;-52
2023/01/06 02:06:49;;;;;;;1382.17;231.03;;;9.50;99.90;;;;;;5049421;28;20320;-52
2023/01/06 02:09:21;;;;;;;713.97;108.97;;;9.50;99.90;;;;;;5049136;28;20213;-52
2023/01/06 02:11:51;;;;;;;1252.67;291.73;;;9.60;99.90;;;;;;5049582;28;20362;-53
2023/01/06 02:14:21;;;;;;;793.80;167.43;;;9.60;99.90;;;;;;5042066;28;20237;-51
2023/01/06 02:17:08;;;;;;;286.53;61.43;;;9.60;99.90;;;;;;5042982;28;20313;-51
2023/01/06 02:20:14;;;;;;;457.73;96.20;;;9.70;99.90;;;;;;5025698;28;20263;-52
2023/01/06 02:23:08;;;;;;;1096.47;179.90;;;9.60;99.90;;;;;;5047116;28;20597;-53
2023/01/06 02:26:19;;;;;;;755.67;119.07;;;9.60;99.90;;;;;;5049482;28;20229;-52
2023/01/06 02:29:15;;;;;;;919.50;176.47;;;9.60;99.90;;;;;;5013797;28;20249;-52
2023/01/06 02:32:02;;;;;;;656.57;126.63;;;9.60;99.90;;;;;;5027667;28;20255;-51
2023/01/06 02:34:42;;;;;;;245.53;64.67;;;9.60;99.90;;;;;;5048986;28;20237;-52
2023/01/06 02:37:26;;;;;;;297.90;69.60;;;9.70;99.90;;;;;;5049039;28;20291;-51
2023/01/06 02:40:09;;;;;;;556.57;102.13;;;9.70;99.90;;;;;;5043968;28;20193;-52
2023/01/06 02:42:44;;;;;;;1815.77;307.93;;;9.70;99.90;;;;;;5048868;28;20210;-51
2023/01/06 02:45:21;;;;;;;411.50;75.70;;;9.80;99.90;;;;;;5049241;28;20213;-52
2023/01/06 02:47:59;;;;;;;1783.23;235.63;;;9.70;99.90;;;;;;5044292;28;20779;-52
2023/01/06 02:50:38;;;;;;;539.77;90.40;;;9.70;99.90;;;;;;5048812;28;20205;-53
2023/01/06 02:53:14;;;;;;;1382.10;246.03;;;9.70;99.90;;;;;;5048888;28;20259;-53
2023/01/06 02:55:45;;;;;;;510.20;104.63;;;9.70;99.90;;;;;;5042059;28;20207;-51
2023/01/06 02:58:21;;;;;;;320.43;64.07;;;9.70;99.90;;;;;;5043863;28;20608;-52
2023/01/06 03:00:56;;;;;;;934.03;123.60;;;9.80;99.90;;;;;;5047662;28;20244;-51
2023/01/06 03:03:29;;;;;;;732.43;135.73;;;9.70;99.90;;;;;;5048237;28;20212;-52
2023/01/06 03:06:03;;;;;;;669.93;128.03;;;9.80;99.90;;;;;;5032899;28;20257;-51
2023/01/06 03:08:32;;;;;;;422.67;114.87;;;9.80;99.90;;;;;;5048596;28;20244;-51
2023/01/06 03:11:02;;;;;;;197.93;56.87;;;9.90;99.90;;;;;;5048779;28;20248;-52
2023/01/06 03:13:38;;;;;;;55.00;23.23;;;9.90;99.90;;;;;;5030116;28;20214;-51
2023/01/06 03:16:07;;;;;;;122.63;39.87;;;9.90;99.90;;;;;;5028771;28;20723;-51
2023/01/06 03:18:40;;;;;;;353.97;74.30;;;9.90;99.90;;;;;;5028604;28;20313;-52
2023/01/06 03:21:13;;;;;;;66.17;33.93;;;10.00;99.90;;;;;;5028978;28;20244;-52
2023/01/06 03:23:42;;;;;;;82.60;35.37;;;10.00;99.90;;;;;;5028421;28;20293;-52
2023/01/06 03:26:10;;;;;;;249.60;68.37;;;10.00;99.90;;;;;;5028842;28;20261;-52
2023/01/06 03:28:38;;;;;;;237.73;79.50;;;10.00;99.90;;;;;;5029104;28;20241;-53
2023/01/06 03:31:14;;;;;;;280.33;75.93;;;10.00;99.90;;;;;;5028785;28;20666;-52
2023/01/06 03:33:51;;;;;;;725.87;168.23;;;10.00;99.90;;;;;;5028320;28;20283;-52
2023/01/06 03:36:28;;;;;;;53.83;32.77;;;10.10;99.90;;;;;;5015206;28;20226;-51
2023/01/06 03:39:05;;;;;;;1095.40;253.80;;;10.00;99.90;;;;;;5028094;28;20347;-52
2023/01/06 03:44:33;;;;;;;87.93;34.70;;;10.00;99.90;;;;;;5026423;28;20291;-52
2023/01/06 03:47:06;;;;;;;268.93;66.17;;;10.00;99.90;;;;;;5026323;28;20329;-52
2023/01/06 03:49:43;;;;;;;325.27;69.57;;;10.00;99.90;;;;;;5028689;28;20264;-52
2023/01/06 03:52:18;;;;;;;1346.07;299.70;;;9.90;99.90;;;;;;5022303;28;20656;-52
2023/01/06 03:54:55;;;;;;;1224.43;222.83;;;9.90;99.90;;;;;;5029748;28;20289;-52
2023/01/06 03:57:26;;;;;;;267.50;61.00;;;9.90;99.90;;;;;;5032340;28;20261;-53
2023/01/06 03:59:56;;;;;;;695.50;208.77;;;9.80;99.90;;;;;;5032768;28;20272;-52
2023/01/06 04:02:25;;;;;;;308.97;75.70;;;9.80;99.90;;;;;;5031843;28;20211;-51
2023/01/06 04:05:08;;;;;;;485.23;82.00;;;9.80;99.90;;;;;;5032275;28;20243;-53
2023/01/06 04:07:38;;;;;;;172.10;62.73;;;9.80;99.90;;;;;;5041413;28;20244;-51
2023/01/06 04:10:07;;;;;;;150.10;41.17;;;9.80;99.90;;;;;;5052008;28;20631;-51
2023/01/06 04:12:38;;;;;;;496.50;98.63;;;9.80;99.90;;;;;;5051890;28;20671;-53
2023/01/06 04:15:09;;;;;;;465.20;95.07;;;9.90;99.90;;;;;;5048782;28;20207;-51
2023/01/06 04:17:37;;;;;;;1631.10;426.17;;;9.80;99.90;;;;;;5052374;28;20233;-52
2023/01/06 04:20:09;;;;;;;892.70;192.27;;;9.80;99.90;;;;;;5051764;28;20249;-51
2023/01/06 04:22:37;;;;;;;691.37;184.20;;;9.80;99.90;;;;;;5050945;28;20237;-50
2023/01/06 04:25:06;;;;;;;1117.83;247.90;;;9.80;99.90;;;;;;5047252;28;20216;-52
2023/01/06 04:27:34;;;;;;;232.37;67.83;;;9.90;99.90;;;;;;5051556;28;20265;-52
2023/01/06 04:30:02;;;;;;;253.57;73.17;;;9.90;99.90;;;;;;5041619;28;20234;-53
2023/01/06 04:32:30;;;;;;;1223.47;236.10;;;9.80;99.90;;;;;;5036790;28;20237;-51
2023/01/06 04:34:58;;;;;;;755.50;176.40;;;9.90;99.90;;;;;;5049893;28;20293;-52
2023/01/06 04:37:27;;;;;;;898.67;216.97;;;9.80;99.90;;;;;;5048835;28;20237;-52
2023/01/06 04:39:55;;;;;;;345.40;68.40;;;9.80;99.90;;;;;;5049871;28;20897;-52
2023/01/06 04:42:23;;;;;;;625.40;95.83;;;9.80;99.90;;;;;;5049669;28;20271;-51
2023/01/06 04:44:51;;;;;;;1397.73;177.83;;;9.80;99.90;;;;;;5049979;28;20237;-52
2023/01/06 04:47:19;;;;;;;699.40;178.13;;;9.70;99.90;;;;;;5049498;28;20260;-51
2023/01/06 04:49:47;;;;;;;1302.53;273.67;;;9.70;99.90;;;;;;5033773;28;20202;-52
2023/01/06 04:52:16;;;;;;;1041.93;308.23;;;9.70;99.90;;;;;;5050217;28;20857;-52
2023/01/06 04:54:45;;;;;;;349.77;60.37;;;9.80;99.90;;;;;;5051130;28;20340;-52
2023/01/06 04:57:13;;;;;;;422.33;102.43;;;9.80;99.90;;;;;;5036970;28;20285;-52
2023/01/06 04:59:41;;;;;;;868.80;198.00;;;9.70;99.90;;;;;;5030291;28;20259;-51
2023/01/06 05:02:09;;;;;;;672.00;108.83;;;9.70;99.90;;;;;;5026899;28;20210;-52
2023/01/06 05:04:37;;;;;;;767.70;137.90;;;9.70;99.90;;;;;;5029918;28;20207;-52
2023/01/06 05:07:14;;;;;;;796.73;112.17;;;9.70;99.90;;;;;;5035960;28;20309;-52
2023/01/06 05:09:42;;;;;;;1207.67;298.50;;;9.70;99.90;;;;;;5049553;28;20674;-52
2023/01/06 05:12:12;;;;;;;358.30;72.03;;;9.70;99.90;;;;;;5049270;28;20233;-52
2023/01/06 05:14:40;;;;;;;300.67;102.57;;;9.70;99.90;;;;;;5049505;28;20292;-52
2023/01/06 05:17:08;;;;;;;352.80;87.87;;;9.70;99.90;;;;;;5049029;28;20249;-52
2023/01/06 05:19:36;;;;;;;386.93;100.43;;;9.70;99.90;;;;;;5049644;28;20714;-53
2023/01/06 05:22:04;;;;;;;933.23;230.27;;;9.70;99.90;;;;;;5049114;28;20642;-51
2023/01/06 05:24:32;;;;;;;560.87;90.83;;;9.70;99.90;;;;;;5049571;28;20234;-52
2023/01/06 05:27:00;;;;;;;539.57;106.77;;;9.70;99.90;;;;;;5049539;28;20230;-52
2023/01/06 05:29:29;;;;;;;1031.97;167.07;;;9.60;99.90;;;;;;5049871;28;20292;-52
2023/01/06 05:31:57;;;;;;;648.07;124.50;;;9.60;99.90;;;;;;5045154;28;20300;-51
2023/01/06 05:34:25;;;;;;;1643.33;263.90;;;9.60;99.90;;;;;;5050067;28;20213;-51
2023/01/06 05:36:54;;;;;;;955.63;160.43;;;9.50;99.90;;;;;;5048446;28;20343;-52
2023/01/06 05:39:22;;;;;;;293.23;55.57;;;9.60;99.90;;;;;;5048479;28;20316;-52
2023/01/06 05:41:50;;;;;;;626.10;116.03;;;9.60;99.90;;;;;;5049103;28;20265;-51
2023/01/06 05:44:18;;;;;;;1103.70;204.43;;;9.60;99.90;;;;;;5023841;28;20237;-51
2023/01/06 05:46:49;;;;;;;1227.87;168.10;;;9.60;99.90;;;;;;5049586;28;20234;-52
2023/01/06 05:49:17;;;;;;;801.83;136.40;;;9.60;99.90;;;;;;5049956;28;20754;-52
2023/01/06 05:51:45;;;;;;;664.63;110.87;;;9.60;99.90;;;;;;5040580;28;20301;-51
2023/01/06 05:54:14;;;;;;;997.87;154.20;;;9.50;99.90;;;;;;5045363;28;20252;-51
2023/01/06 05:56:42;;;;;;;838.90;132.37;;;9.50;99.90;;;;;;5034310;28;20593;-51
2023/01/06 05:59:10;;;;;;;823.40;151.00;;;9.50;99.90;;;;;;5047122;28;20316;-51
2023/01/06 06:01:38;;;;;;;993.73;203.93;;;9.50;99.90;;;;;;5022884;28;20212;-51
2023/01/06 06:04:07;;;;;;;213.20;31.33;;;9.40;99.90;;;;;;5049380;28;20299;-52
2023/01/06 06:06:35;;;;;;;627.33;122.07;;;9.50;99.90;;;;;;5048370;28;20236;-52
2023/01/06 06:09:05;;;;;;;383.07;78.80;;;9.50;99.90;;;;;;5034804;28;20320;-51
2023/01/06 06:11:33;;;;;;;1365.50;172.67;;;9.50;99.90;;;;;;5048582;28;20209;-51
2023/01/06 06:14:01;;;;;;;361.33;80.97;;;9.50;99.90;;;;;;5020160;28;20205;-52
2023/01/06 06:16:29;;;;;;;701.57;138.53;;;9.50;99.90;;;;;;5047703;28;20750;-52
2023/01/06 06:18:58;;;;;;;761.93;136.90;;;9.50;99.90;;;;;;5048440;28;20224;-51
2023/01/06 06:21:30;;;;;;;1043.43;161.77;;;9.50;99.90;;;;;;5045826;28;20395;-52
2023/01/06 06:23:59;;;;;;;1580.50;291.90;;;9.50;99.90;;;;;;5047263;28;20226;-50
2023/01/06 06:26:28;;;;;;;404.63;75.80;;;9.40;99.90;;;;;;5048155;28;20221;-51
2023/01/06 06:28:56;;;;;;;423.43;64.57;;;9.40;99.90;;;;;;5042255;28;20772;-52
2023/01/06 06:31:26;;;;;;;150.07;36.27;;;9.50;99.90;;;;;;5047885;28;20292;-51
2023/01/06 06:33:56;;;;;;;266.50;77.50;;;9.50;99.90;;;;;;5027094;28;20257;-51
2023/01/06 06:36:24;;;;;;;1263.03;174.23;;;9.60;99.90;;;;;;5048708;28;20737;-51
2023/01/06 06:38:54;;;;;;;95.13;26.53;;;9.60;99.90;;;;;;5046948;28;20229;-51
2023/01/06 06:41:24;;;;;;;109.23;35.13;;;9.60;99.90;;;;;;5027394;28;20304;-52
2023/01/06 06:43:52;;;;;;;680.30;123.57;;;9.50;99.90;;;;;;5042907;28;20886;-51
2023/01/06 06:46:21;;;;;;;987.67;203.57;;;9.50;99.90;;;;;;5022067;28;20229;-52
2023/01/06 06:48:49;;;;;;;75.87;25.47;;;9.60;99.90;;;;;;5048470;28;20240;-51
2023/01/06 06:51:19;;;;;;;298.33;76.07;;;9.50;99.90;;;;;;5023764;28;20207;-51
2023/01/06 06:53:47;;;;;;;457.03;130.07;;;9.50;99.90;;;;;;5034676;28;20237;-52
2023/01/06 06:56:18;;;;;;;409.63;86.70;;;9.50;99.90;;;;;;5044877;28;20260;-52
2023/01/06 06:58:46;;;;;;;1078.77;200.10;;;9.50;99.90;;;;;;5048972;28;20244;-51
2023/01/06 07:01:16;;;;;;;931.10;154.13;;;9.50;99.90;;;;;;5047706;28;20237;-52
2023/01/06 07:03:45;;;;;;;1999.90;382.60;;;9.50;99.90;;;;;;5033059;28;20214;-52
2023/01/06 07:06:15;;;;;;;1999.90;506.33;;;9.40;99.90;;;;;;5048693;28;20260;-51
2023/01/06 07:08:44;;;;;;;412.70;91.37;;;9.40;99.90;;;;;;5048369;28;20215;-51
2023/01/06 07:11:12;;;;;;;1332.87;288.13;;;9.40;99.90;;;;;;5039950;28;20641;-51
2023/01/06 07:13:42;;;;;;;434.13;100.20;;;9.40;99.90;;;;;;5044534;28;20244;-51
2023/01/06 07:16:10;;;;;;;376.70;81.50;;;9.40;99.90;;;;;;5033646;28;20233;-51
2023/01/06 07:18:39;;;;;;;1911.63;264.90;;;9.40;99.90;;;;;;5041152;28;20232;-51
2023/01/06 07:21:07;;;;;;;843.10;148.90;;;9.50;99.90;;;;;;5046807;28;20886;-51
2023/01/06 07:23:35;;;;;;;822.93;166.83;;;9.40;99.90;;;;;;5043568;28;20542;-51
2023/01/06 07:26:03;;;;;;;1999.90;343.93;;;9.40;99.90;;;;;;5040920;28;20790;-51
2023/01/06 07:28:32;;;;;;;1623.20;238.47;;;9.30;99.90;;;;;;5039588;28;20266;-51
2023/01/06 07:31:02;;;;;;;710.37;141.80;;;9.30;99.90;;;;;;5036623;28;20205;-51
2023/01/06 07:33:30;;;;;;;667.57;98.97;;;9.30;99.90;;;;;;5031073;28;20215;-51
2023/01/06 07:35:58;;;;;;;559.77;104.73;;;9.30;99.90;;;;;;5027932;28;20850;-51
2023/01/06 07:38:26;;;;;;;1084.67;220.93;;;9.30;99.90;;;;;;5030666;28;20683;-51
2023/01/06 07:40:59;;;;;;;992.30;128.03;;;9.30;99.90;;;;;;5038219;28;20635;-51
2023/01/06 07:43:27;;;;;;;1569.67;226.20;;;9.40;99.90;;;;;;5030037;28;20307;-51
2023/01/06 07:45:55;;;;;;;1094.43;190.60;;;9.40;99.90;;;;;;5028358;28;20218;-51
2023/01/06 07:48:24;;;;;;;587.07;113.67;;;9.40;99.90;;;;;;5032009;28;20226;-51
2023/01/06 07:50:52;;;;;;;1099.07;184.43;;;9.40;99.90;;;;;;5032500;28;20248;-51
2023/01/06 07:53:21;;;;;;;1673.30;256.33;;;9.30;99.90;;;;;;5031449;28;20313;-51
2023/01/06 07:55:53;;;;;;;835.47;129.50;;;9.40;99.90;;;;;;5032225;28;20687;-51
2023/01/06 07:58:22;;;;;;;1999.90;493.77;;;9.40;99.90;;;;;;5032163;28;20206;-51
2023/01/06 08:00:51;;;;;;;1999.90;489.40;;;9.30;99.90;;;;;;5037543;28;20243;-51
2023/01/06 08:03:19;;;;;;;1592.53;244.97;;;9.30;99.90;;;;;;5046081;28;20255;-52
2023/01/06 08:05:48;;;;;;;1620.47;245.43;;;9.30;99.90;;;;;;5046130;28;20205;-51
2023/01/06 08:08:16;;;;;;;1999.90;340.73;;;9.40;99.90;;;;;;5040648;28;20229;-51
2023/01/06 08:10:44;;;;;;;1999.90;535.00;;;9.30;99.90;;;;;;5048092;28;20204;-52
2023/01/06 08:13:12;;;;;;;1130.30;183.70;;;9.30;99.90;;;;;;5040583;28;20241;-51
2023/01/06 08:15:40;;;;;;;1850.37;374.77;;;9.30;99.90;;;;;;5046661;28;20240;-51
2023/01/06 08:18:09;;;;;;;1735.67;264.40;;;9.30;99.90;;;;;;5046450;28;20285;-51
2023/01/06 08:20:38;;;;;;;1449.77;248.87;;;9.30;99.90;;;;;;5048421;28;20228;-51
2023/01/06 08:23:09;;;;;;;1993.63;293.17;;;9.30;99.90;;;;;;5047086;28;20277;-50
2023/01/06 08:25:37;;;;;;;1999.90;567.00;;;9.20;99.90;;;;;;5041709;28;20213;-51
2023/01/06 08:28:05;;;;;;;1999.90;436.07;;;9.20;99.90;;;;;;5044277;28;20643;-51
2023/01/06 08:30:38;;;;;;;1568.33;256.40;;;9.30;99.90;;;;;;5041043;28;20250;-50
2023/01/06 08:33:06;;;;;;;1999.90;616.40;;;9.30;99.90;;;;;;5031868;28;20289;-51
2023/01/06 08:35:34;;;;;;;1378.70;301.37;;;9.20;99.90;;;;;;5028007;28;20646;-51
2023/01/06 08:38:02;;;;;;;1516.17;259.77;;;9.20;99.90;;;;;;5028442;28;20750;-51
2023/01/06 08:40:32;;;;;;;1793.07;290.83;;;9.30;99.90;;;;;;5038046;28;20263;-51
2023/01/06 08:43:00;;;;;;;1234.83;218.73;;;9.30;99.90;;;;;;5042598;28;20632;-51
2023/01/06 08:45:28;;;;;;;1735.33;295.67;;;9.30;99.90;;;;;;5028541;28;20219;-51
2023/01/06 08:47:56;;;;;;;1510.80;298.40;;;9.30;99.90;;;;;;5031126;28;20259;-51
2023/01/06 08:50:24;;;;;;;1999.90;340.07;;;9.30;99.90;;;;;;5043614;28;20671;-51
2023/01/06 08:52:54;;;;;;;1881.00;312.80;;;9.30;99.90;;;;;;5042971;28;20705;-51
2023/01/06 08:55:22;;;;;;;1992.17;342.10;;;9.30;99.90;;;;;;5040264;28;20209;-51
2023/01/06 08:57:52;;;;;;;1220.87;234.00;;;9.30;99.90;;;;;;5029349;28;20225;-51
2023/01/06 09:00:22;;;;;;;951.27;119.03;;;9.40;99.90;;;;;;5026454;28;20218;-51
2023/01/06 09:02:50;;;;;;;1999.90;347.67;;;9.40;99.90;;;;;;5030652;28;20215;-51
2023/01/06 09:05:18;;;;;;;1999.90;457.17;;;9.40;99.90;;;;;;5042847;28;20293;-51
2023/01/06 09:07:46;;;;;;;1048.20;211.67;;;9.40;99.90;;;;;;5041538;28;20263;-51
2023/01/06 09:10:14;;;;;;;956.90;162.70;;;9.50;99.90;;;;;;5044880;28;20245;-51
2023/01/06 09:12:43;;;;;;;984.17;166.67;;;9.50;99.90;;;;;;5044926;28;20305;-51
2023/01/06 09:15:13;;;;;;;1047.13;161.07;;;9.50;99.90;;;;;;5029699;28;20699;-51
2023/01/06 09:17:41;;;;;;;478.97;75.93;;;9.50;99.90;;;;;;5035104;28;20762;-51
2023/01/06 09:20:10;;;;;;;1999.90;380.47;;;9.60;99.90;;;;;;5025027;28;20292;-51
2023/01/06 09:22:38;;;;;;;1461.10;273.07;;;9.60;99.90;;;;;;5030421;28;20260;-51
2023/01/06 09:25:07;;;;;;;1999.90;422.50;;;9.60;99.90;;;;;;5030269;28;20337;-51
2023/01/06 09:27:35;;;;;;;943.57;266.47;;;9.70;99.90;;;;;;5030439;28;20231;-51
2023/01/06 09:30:04;;;;;;;1999.90;383.97;;;9.60;99.90;;;;;;5027782;28;20237;-51
2023/01/06 09:32:33;;;;;;;842.03;134.03;;;9.60;99.90;;;;;;5027532;28;20239;-51
2023/01/06 09:35:01;;;;;;;1513.40;207.73;;;9.70;99.90;;;;;;5028943;28;20199;-51
2023/01/06 09:37:29;;;;;;;1999.90;346.63;;;9.70;99.90;;;;;;5027938;28;20801;-52
2023/01/06 09:39:58;;;;;;;1222.73;203.07;;;9.70;99.90;;;;;;5028791;28;20234;-51
2023/01/06 09:42:42;;;;;;;941.50;213.73;;;9.70;99.90;;;;;;5028148;28;20284;-51
2023/01/06 09:45:16;;;;;;;287.80;71.00;;;9.70;99.90;;;;;;5030477;28;20212;-51
2023/01/06 09:47:51;;;;;;;1999.90;389.30;;;9.70;99.90;;;;;;5025526;28;20645;-51
2023/01/06 09:50:31;;;;;;;207.43;58.20;;;9.80;99.90;;;;;;5025590;28;20238;-52
2023/01/06 09:53:06;;;;;;;1860.13;273.33;;;9.80;99.90;;;;;;5028108;28;20260;-52
2023/01/06 09:55:38;;;;;;;980.60;162.77;;;9.90;99.90;;;;;;5029987;28;20252;-52
2023/01/06 09:58:12;;;;;;;1046.73;178.13;;;10.00;99.90;;;;;;5025649;28;20242;-52
2023/01/06 10:00:43;;;;;;;1999.90;471.17;;;10.00;99.90;;;;;;5029668;28;20313;-52
2023/01/06 10:03:14;;;;;;;1999.90;496.57;;;10.00;99.90;;;;;;5024529;28;20234;-52
2023/01/06 10:05:56;;;;;;;1226.63;230.57;;;9.90;99.90;;;;;;5023292;28;20286;-51
2023/01/06 10:08:35;;;;;;;1742.90;259.47;;;10.00;99.90;;;;;;5045338;28;20213;-53
2023/01/06 10:11:15;;;;;;;1641.03;275.73;;;10.10;99.90;;;;;;5049891;28;20232;-51
2023/01/06 10:13:55;;;;;;;1414.80;278.47;;;10.10;99.90;;;;;;5049322;28;20262;-52
2023/01/06 10:16:33;;;;;;;1848.07;276.10;;;10.10;99.90;;;;;;5049601;28;20224;-52
2023/01/06 10:19:13;;;;;;;1999.90;539.63;;;10.10;99.90;;;;;;5049395;28;20200;-52
2023/01/06 10:21:48;;;;;;;1006.17;144.07;;;10.00;99.90;;;;;;5049383;28;20267;-51
2023/01/06 10:24:30;;;;;;;1007.10;188.93;;;10.00;99.90;;;;;;5022362;28;20205;-51
2023/01/06 10:27:02;;;;;;;1625.43;333.40;;;10.00;99.90;;;;;;5049472;28;20267;-51
2023/01/06 10:29:34;;;;;;;1999.90;441.60;;;10.00;99.90;;;;;;5049389;28;20217;-50
2023/01/06 10:32:06;;;;;;;851.47;186.80;;;10.00;99.90;;;;;;5030720;28;20236;-51
2023/01/06 10:34:35;;;;;;;981.23;225.83;;;10.10;99.90;;;;;;5038954;28;20297;-52
2023/01/06 10:37:14;;;;;;;1967.50;375.73;;;10.10;99.90;;;;;;5028845;28;20309;-51
2023/01/06 10:39:45;;;;;;;1302.97;201.40;;;10.10;99.90;;;;;;5029138;28;20256;-51
2023/01/06 10:45:11;;;;;;;1470.93;288.47;;;10.20;99.90;;;;;;5028192;28;20305;-51
2023/01/06 10:47:42;;;;;;;1999.90;442.53;;;10.20;99.90;;;;;;5027261;28;20260;-52
2023/01/06 10:50:15;;;;;;;1783.20;353.97;;;10.20;99.90;;;;;;5028841;28;20218;-51
2023/01/06 10:52:43;;;;;;;1999.90;582.93;;;10.20;99.90;;;;;;5024195;28;20199;-52
2023/01/06 10:55:27;;;;;;;1522.70;308.33;;;10.20;99.90;;;;;;5028890;28;20233;-51
2023/01/06 10:57:59;;;;;;;1464.33;265.40;;;10.20;99.90;;;;;;5023291;28;20314;-51
2023/01/06 11:00:31;;;;;;;1460.17;267.80;;;10.20;99.90;;;;;;5025094;28;20310;-51
2023/01/06 11:03:04;;;;;;;1573.07;265.20;;;10.20;99.90;;;;;;5029181;28;20234;-52
2023/01/06 11:06:06;;;;;;;1884.77;294.53;;;10.20;99.90;;;;;;5032668;28;20214;-51
2023/01/06 11:08:36;;;;;;;1999.90;610.50;;;10.10;99.90;;;;;;5039916;28;20209;-52
2023/01/06 11:11:11;;;;;;;1999.90;472.20;;;10.00;99.90;;;;;;5046482;28;20209;-52
2023/01/06 11:13:57;;;;;;;1999.90;517.97;;;10.10;99.90;;;;;;5032859;28;20197;-52
2023/01/06 11:16:27;;;;;;;1933.80;298.03;;;10.10;99.90;;;;;;5031090;28;20226;-51
2023/01/06 11:18:58;;;;;;;1224.70;259.47;;;10.10;99.90;;;;;;5022489;28;20206;-53
2023/01/06 11:21:38;;;;;;;1042.47;173.17;;;10.20;99.90;;;;;;5027294;28;20262;-52
2023/01/06 11:24:16;;;;;;;1066.40;208.00;;;10.20;99.90;;;;;;5027435;28;20202;-51
2023/01/06 11:26:50;;;;;;;627.83;109.97;;;10.20;99.90;;;;;;5029242;28;20257;-52
2023/01/06 11:29:23;;;;;;;896.33;198.03;;;10.30;99.90;;;;;;5028165;28;20237;-51
2023/01/06 11:31:52;;;;;;;1888.23;277.53;;;10.30;99.90;;;;;;5028637;28;20714;-51
2023/01/06 11:34:22;;;;;;;1645.80;247.60;;;10.40;99.90;;;;;;5022662;28;20207;-51
2023/01/06 11:36:52;;;;;;;870.20;119.87;;;10.40;99.90;;;;;;5040519;28;20256;-51
2023/01/06 11:39:26;;;;;;;980.20;178.97;;;10.40;99.90;;;;;;5029647;28;20242;-51
2023/01/06 11:41:57;;;;;;;1339.40;210.53;;;10.40;99.90;;;;;;5021442;28;20246;-51
2023/01/06 11:44:31;;;;;;;1999.90;631.67;;;10.40;99.90;;;;;;5037976;28;20209;-51
2023/01/06 11:47:03;;;;;;;1893.43;246.53;;;10.40;99.90;;;;;;5027931;28;20303;-51
2023/01/06 11:49:34;;;;;;;1999.90;345.70;;;10.40;99.90;;;;;;5038290;28;20679;-51
2023/01/06 11:52:06;;;;;;;1126.07;146.90;;;10.30;99.90;;;;;;5040366;28;20702;-51
2023/01/06 11:54:37;;;;;;;1999.90;373.80;;;10.40;99.90;;;;;;5043187;28;20209;-51
2023/01/06 11:57:20;;;;;;;1448.10;232.53;;;10.30;99.90;;;;;;5044248;28;20275;-51
2023/01/06 12:00:01;;;;;;;1348.83;250.63;;;10.30;99.90;;;;;;5031458;28;20198;-51
2023/01/06 12:02:37;;;;;;;475.20;99.60;;;10.40;99.90;;;;;;5045176;28;21063;-51
2023/01/06 12:05:18;;;;;;;1999.90;287.17;;;10.40;99.90;;;;;;5040843;28;20206;-51
2023/01/06 12:07:51;;;;;;;1999.90;487.77;;;10.40;99.90;;;;;;5039302;28;20281;-51
2023/01/06 12:10:23;;;;;;;1999.90;391.30;;;10.40;99.90;;;;;;5040719;28;20643;-51
2023/01/06 12:12:51;;;;;;;276.57;61.23;;;10.40;99.90;;;;;;5028864;28;20230;-51
2023/01/06 12:15:19;;;;;;;1908.83;263.83;;;10.50;99.90;;;;;;5032067;28;20241;-50
2023/01/06 12:17:50;;;;;;;1165.27;255.33;;;10.50;99.90;;;;;;5031817;28;20301;-51
2023/01/06 12:20:23;;;;;;;1339.90;195.13;;;10.50;99.90;;;;;;5031490;28;20230;-52
2023/01/06 12:22:54;;;;;;;1909.33;473.27;;;10.60;99.90;;;;;;5037437;28;20398;-51
2023/01/06 12:25:25;;;;;;;950.90;213.13;;;10.50;99.90;;;;;;5031265;28;20249;-53
2023/01/06 12:27:57;;;;;;;1999.90;396.57;;;10.50;99.90;;;;;;5025776;28;20305;-52
2023/01/06 12:30:29;;;;;;;479.03;78.90;;;10.40;99.90;;;;;;5031855;28;20616;-51
2023/01/06 12:33:05;;;;;;;382.40;78.77;;;10.50;99.90;;;;;;5031950;28;20297;-52
2023/01/06 12:35:36;;;;;;;1999.90;491.63;;;10.50;99.90;;;;;;5031994;28;20615;-52
2023/01/06 12:38:14;;;;;;;1562.17;204.33;;;10.50;99.90;;;;;;5031712;28;20272;-51
2023/01/06 12:40:46;;;;;;;1999.90;384.20;;;10.60;99.90;;;;;;5023655;28;20297;-52
2023/01/06 12:43:17;;;;;;;465.47;116.13;;;10.60;99.90;;;;;;5026914;28;20207;-51
2023/01/06 12:45:54;;;;;;;280.77;56.53;;;10.70;99.90;;;;;;5025919;28;20264;-53